createdAt,value
2018-04-23T00:00:05.239Z,20.6
2018-04-23T00:15:05.001Z,20.6
2018-04-23T00:30:05.175Z,20.5
2018-04-23T00:45:05.168Z,20.4
2018-04-23T01:00:04.711Z,20.3
2018-04-23T01:15:05.072Z,20.1
2018-04-23T01:30:04.762Z,19.8
2018-04-23T01:45:05.203Z,19.6
2018-04-23T02:00:04.768Z,19.2
2018-04-23T02:15:04.831Z,19.4
2018-04-23T02:30:04.496Z,19.1
2018-04-23T02:45:04.939Z,18.8
2018-04-23T03:00:04.950Z,19
2018-04-23T03:15:04.927Z,18.8
2018-04-23T03:30:05.384Z,18.9
2018-04-23T03:45:04.803Z,18.5
2018-04-23T04:00:04.774Z,18.8
2018-04-23T04:15:05.453Z,18.9
2018-04-23T04:30:04.440Z,18.8
2018-04-23T04:45:04.912Z,18.9
2018-04-23T05:00:04.385Z,19
2018-04-23T05:15:04.795Z,19.1
2018-04-23T05:30:05.004Z,19.2
2018-04-23T05:45:04.570Z,19.4
2018-04-23T06:00:04.590Z,19.8
2018-04-23T06:15:05.074Z,20.1
2018-04-23T06:30:04.803Z,20.8
2018-04-23T06:45:04.220Z,21.4
2018-04-23T07:00:04.841Z,21.9
2018-04-23T07:15:04.838Z,22.5
2018-04-23T07:30:05.067Z,23.3
2018-04-23T07:45:05.023Z,24.4
2018-04-23T08:00:05.029Z,24.9
2018-04-23T08:15:04.493Z,25
2018-04-23T08:30:04.292Z,25.3
2018-04-23T08:45:04.274Z,26.7
2018-04-23T09:00:04.797Z,26.6
2018-04-23T09:15:04.725Z,26.8
2018-04-23T09:30:04.496Z,26.7
2018-04-23T09:45:05.024Z,27.1
2018-04-23T10:00:05.053Z,26.8
2018-04-23T10:15:04.635Z,26.8
2018-04-23T10:30:04.474Z,27
2018-04-23T10:45:04.471Z,27.3
2018-04-23T11:00:04.539Z,26.6
2018-04-23T11:15:04.572Z,26.5
2018-04-23T11:30:04.273Z,26.5
2018-04-23T11:45:04.723Z,26.5
2018-04-23T12:00:04.364Z,26.2
2018-04-23T12:15:04.810Z,26
2018-04-23T12:30:05.006Z,25.9
2018-04-23T12:45:05.109Z,25.6
2018-04-23T13:00:04.603Z,25.2
2018-04-23T13:15:04.587Z,25.1
2018-04-23T13:30:04.382Z,25.1
2018-04-23T13:45:05.034Z,25.2
2018-04-23T14:00:04.502Z,25.3
2018-04-23T14:15:04.488Z,25.3
2018-04-23T14:30:04.288Z,25.3
2018-04-23T14:45:04.794Z,24.8
2018-04-23T15:00:04.269Z,24.3
2018-04-23T15:15:05.190Z,23.9
2018-04-23T15:30:04.903Z,23.8
2018-04-23T15:45:04.438Z,23.7
2018-04-23T16:00:05.035Z,23.2
2018-04-23T16:15:04.515Z,22.8
2018-04-23T16:30:05.365Z,22.5
2018-04-23T16:45:04.522Z,22.3
2018-04-23T17:00:04.589Z,21.7
2018-04-23T17:15:04.695Z,21.3
2018-04-23T17:30:05.391Z,21.3
2018-04-23T17:45:04.375Z,20.8
2018-04-23T18:00:04.665Z,20.6
2018-04-23T18:15:04.711Z,20.5
2018-04-23T18:30:05.171Z,20.3
2018-04-23T18:45:04.966Z,20.3
2018-04-23T19:00:04.740Z,20.1
2018-04-23T19:15:05.458Z,20.1
2018-04-23T19:30:05.238Z,20.3
2018-04-23T19:45:05.526Z,20.3
2018-04-23T20:00:05.065Z,20.6
2018-04-23T20:15:04.600Z,19.5
2018-04-23T20:30:05.201Z,19.5
2018-04-23T20:45:04.743Z,19.9
2018-04-23T21:00:04.317Z,20
2018-04-23T21:15:04.298Z,19.7
2018-04-23T21:30:06.187Z,19.3
2018-04-23T21:45:04.482Z,19.6
2018-04-23T22:00:05.526Z,9.95
2018-04-23T22:15:05.075Z,19.7
2018-04-23T22:30:04.281Z,19.8
2018-04-23T22:45:04.950Z,19.5
2018-04-23T23:00:04.443Z,19.2
2018-04-23T23:15:05.132Z,18.6
2018-04-23T23:30:04.305Z,18.3
2018-04-23T23:45:04.655Z,18.6
